sensor_id;sensor_type;location;lat;lon;timestamp;P1;durP1;ratioP1;P2;durP2;ratioP2
1020;SDS011;499;42.648;23.270;2023-04-29T00:01:23;1.50;;;1.40;;
1020;SDS011;499;42.648;23.270;2023-04-29T00:03:51;1.20;;;1.10;;
1020;SDS011;499;42.648;23.270;2023-04-29T00:06:18;0.90;;;0.70;;
1020;SDS011;499;42.648;23.270;2023-04-29T00:08:45;0.90;;;0.80;;
1020;SDS011;499;42.648;23.270;2023-04-29T00:11:12;1.00;;;0.70;;
1020;SDS011;499;42.648;23.270;2023-04-29T00:13:39;0.90;;;0.80;;
1020;SDS011;499;42.648;23.270;2023-04-29T00:16:08;1.00;;;0.90;;
1020;SDS011;499;42.648;23.270;2023-04-29T00:18:35;1.30;;;1.20;;
1020;SDS011;499;42.648;23.270;2023-04-29T00:21:02;0.93;;;0.83;;
1020;SDS011;499;42.648;23.270;2023-04-29T00:23:31;0.90;;;0.80;;
1020;SDS011;499;42.648;23.270;2023-04-29T00:25:58;1.03;;;0.93;;
1020;SDS011;499;42.648;23.270;2023-04-29T00:28:25;0.90;;;0.80;;
1020;SDS011;499;42.648;23.270;2023-04-29T00:30:52;0.90;;;0.80;;
1020;SDS011;499;42.648;23.270;2023-04-29T00:33:21;1.00;;;0.90;;
1020;SDS011;499;42.648;23.270;2023-04-29T00:35:48;0.90;;;0.70;;
1020;SDS011;499;42.648;23.270;2023-04-29T00:38:16;1.37;;;1.27;;
1020;SDS011;499;42.648;23.270;2023-04-29T00:40:43;0.90;;;0.80;;
1020;SDS011;499;42.648;23.270;2023-04-29T00:43:10;0.90;;;0.70;;
1020;SDS011;499;42.648;23.270;2023-04-29T00:45:37;0.90;;;0.73;;
1020;SDS011;499;42.648;23.270;2023-04-29T00:48:04;1.00;;;0.80;;
1020;SDS011;499;42.648;23.270;2023-04-29T00:50:33;1.00;;;0.90;;
1020;SDS011;499;42.648;23.270;2023-04-29T00:53:00;0.90;;;0.80;;
1020;SDS011;499;42.648;23.270;2023-04-29T00:55:28;1.20;;;1.03;;
1020;SDS011;499;42.648;23.270;2023-04-29T00:57:55;0.90;;;0.80;;
1020;SDS011;499;42.648;23.270;2023-04-29T01:00:23;0.90;;;0.80;;
1020;SDS011;499;42.648;23.270;2023-04-29T01:02:51;0.90;;;0.80;;
1020;SDS011;499;42.648;23.270;2023-04-29T01:05:21;0.97;;;0.87;;
1020;SDS011;499;42.648;23.270;2023-04-29T01:07:53;1.10;;;1.00;;
1020;SDS011;499;42.648;23.270;2023-04-29T01:10:31;1.10;;;0.90;;
1020;SDS011;499;42.648;23.270;2023-04-29T01:13:05;1.00;;;0.90;;
1020;SDS011;499;42.648;23.270;2023-04-29T01:15:38;1.03;;;0.93;;
1020;SDS011;499;42.648;23.270;2023-04-29T01:18:14;1.00;;;0.90;;
1020;SDS011;499;42.648;23.270;2023-04-29T01:20:45;1.10;;;1.00;;
1020;SDS011;499;42.648;23.270;2023-04-29T01:23:14;0.90;;;0.80;;
1020;SDS011;499;42.648;23.270;2023-04-29T01:25:42;0.90;;;0.80;;
1020;SDS011;499;42.648;23.270;2023-04-29T01:28:12;0.90;;;0.80;;
1020;SDS011;499;42.648;23.270;2023-04-29T01:30:46;0.97;;;0.87;;
1020;SDS011;499;42.648;23.270;2023-04-29T01:33:24;1.03;;;0.93;;
1020;SDS011;499;42.648;23.270;2023-04-29T01:36:02;0.90;;;0.70;;
1020;SDS011;499;42.648;23.270;2023-04-29T01:38:41;1.00;;;0.90;;
1020;SDS011;499;42.648;23.270;2023-04-29T01:41:16;1.10;;;0.90;;
1020;SDS011;499;42.648;23.270;2023-04-29T01:43:49;0.90;;;0.70;;
1020;SDS011;499;42.648;23.270;2023-04-29T01:46:17;0.90;;;0.80;;
1020;SDS011;499;42.648;23.270;2023-04-29T01:48:44;0.90;;;0.70;;
1020;SDS011;499;42.648;23.270;2023-04-29T01:51:11;0.90;;;0.80;;
1020;SDS011;499;42.648;23.270;2023-04-29T01:53:38;0.90;;;0.80;;
1020;SDS011;499;42.648;23.270;2023-04-29T01:56:06;1.00;;;0.90;;
1020;SDS011;499;42.648;23.270;2023-04-29T01:58:36;0.90;;;0.80;;
1020;SDS011;499;42.648;23.270;2023-04-29T02:01:03;1.57;;;1.47;;
1020;SDS011;499;42.648;23.270;2023-04-29T02:03:30;0.90;;;0.80;;
1020;SDS011;499;42.648;23.270;2023-04-29T02:05:57;1.10;;;0.90;;
1020;SDS011;499;42.648;23.270;2023-04-29T02:08:24;0.90;;;0.80;;
1020;SDS011;499;42.648;23.270;2023-04-29T02:10:51;0.97;;;0.87;;
1020;SDS011;499;42.648;23.270;2023-04-29T02:13:19;1.00;;;0.90;;
1020;SDS011;499;42.648;23.270;2023-04-29T02:15:47;1.10;;;1.00;;
1020;SDS011;499;42.648;23.270;2023-04-29T02:18:15;0.90;;;0.80;;
1020;SDS011;499;42.648;23.270;2023-04-29T02:20:42;0.97;;;0.87;;
1020;SDS011;499;42.648;23.270;2023-04-29T02:23:09;1.27;;;1.17;;
1020;SDS011;499;42.648;23.270;2023-04-29T02:25:36;0.93;;;0.83;;
1020;SDS011;499;42.648;23.270;2023-04-29T02:28:04;1.73;;;0.90;;
1020;SDS011;499;42.648;23.270;2023-04-29T02:30:31;0.90;;;0.80;;
1020;SDS011;499;42.648;23.270;2023-04-29T02:32:59;1.00;;;0.90;;
1020;SDS011;499;42.648;23.270;2023-04-29T02:35:26;1.30;;;0.90;;
1020;SDS011;499;42.648;23.270;2023-04-29T02:37:53;0.90;;;0.80;;
1020;SDS011;499;42.648;23.270;2023-04-29T02:40:20;0.90;;;0.80;;
1020;SDS011;499;42.648;23.270;2023-04-29T02:42:49;1.30;;;1.20;;
1020;SDS011;499;42.648;23.270;2023-04-29T02:45:16;1.67;;;1.57;;
1020;SDS011;499;42.648;23.270;2023-04-29T02:47:43;1.30;;;1.00;;
1020;SDS011;499;42.648;23.270;2023-04-29T02:50:12;1.00;;;0.90;;
1020;SDS011;499;42.648;23.270;2023-04-29T02:52:39;0.90;;;0.80;;
1020;SDS011;499;42.648;23.270;2023-04-29T02:55:07;1.13;;;1.03;;
1020;SDS011;499;42.648;23.270;2023-04-29T02:57:34;2.30;;;1.73;;
1020;SDS011;499;42.648;23.270;2023-04-29T03:00:02;0.90;;;0.80;;
1020;SDS011;499;42.648;23.270;2023-04-29T03:02:29;3.53;;;1.67;;
1020;SDS011;499;42.648;23.270;2023-04-29T03:04:56;2.20;;;1.37;;
1020;SDS011;499;42.648;23.270;2023-04-29T03:07:25;1.00;;;0.90;;
1020;SDS011;499;42.648;23.270;2023-04-29T03:09:54;0.90;;;0.80;;
1020;SDS011;499;42.648;23.270;2023-04-29T03:12:21;0.90;;;0.80;;
1020;SDS011;499;42.648;23.270;2023-04-29T03:14:48;1.00;;;0.90;;
1020;SDS011;499;42.648;23.270;2023-04-29T03:17:16;1.33;;;1.23;;
1020;SDS011;499;42.648;23.270;2023-04-29T03:19:43;1.10;;;1.00;;
1020;SDS011;499;42.648;23.270;2023-04-29T03:22:10;1.17;;;1.07;;
1020;SDS011;499;42.648;23.270;2023-04-29T03:24:38;0.90;;;0.80;;
1020;SDS011;499;42.648;23.270;2023-04-29T03:27:06;0.97;;;0.87;;
1020;SDS011;499;42.648;23.270;2023-04-29T03:29:33;1.03;;;0.90;;
1020;SDS011;499;42.648;23.270;2023-04-29T03:32:00;0.90;;;0.80;;
1020;SDS011;499;42.648;23.270;2023-04-29T03:34:27;1.00;;;0.90;;
1020;SDS011;499;42.648;23.270;2023-04-29T03:36:54;0.90;;;0.80;;
1020;SDS011;499;42.648;23.270;2023-04-29T03:39:21;0.90;;;0.80;;
1020;SDS011;499;42.648;23.270;2023-04-29T03:41:50;1.40;;;1.10;;
1020;SDS011;499;42.648;23.270;2023-04-29T03:44:17;1.60;;;1.10;;
1020;SDS011;499;42.648;23.270;2023-04-29T03:46:44;0.90;;;0.80;;
1020;SDS011;499;42.648;23.270;2023-04-29T03:49:11;0.90;;;0.80;;
1020;SDS011;499;42.648;23.270;2023-04-29T03:51:38;0.90;;;0.80;;
1020;SDS011;499;42.648;23.270;2023-04-29T03:54:05;0.97;;;0.87;;
1020;SDS011;499;42.648;23.270;2023-04-29T03:56:33;1.30;;;1.20;;
1020;SDS011;499;42.648;23.270;2023-04-29T03:59:02;1.53;;;0.90;;
1020;SDS011;499;42.648;23.270;2023-04-29T04:01:29;0.83;;;0.70;;
1020;SDS011;499;42.648;23.270;2023-04-29T04:03:56;1.00;;;0.90;;
1020;SDS011;499;42.648;23.270;2023-04-29T04:06:23;1.00;;;0.90;;
1020;SDS011;499;42.648;23.270;2023-04-29T04:08:50;1.00;;;0.90;;
1020;SDS011;499;42.648;23.270;2023-04-29T04:11:17;0.90;;;0.70;;
1020;SDS011;499;42.648;23.270;2023-04-29T04:13:44;1.10;;;1.00;;
1020;SDS011;499;42.648;23.270;2023-04-29T04:16:12;0.90;;;0.80;;
1020;SDS011;499;42.648;23.270;2023-04-29T04:18:40;1.23;;;0.90;;
1020;SDS011;499;42.648;23.270;2023-04-29T04:21:07;1.00;;;0.80;;
1020;SDS011;499;42.648;23.270;2023-04-29T04:23:34;1.30;;;1.00;;
1020;SDS011;499;42.648;23.270;2023-04-29T04:26:04;1.27;;;1.17;;
1020;SDS011;499;42.648;23.270;2023-04-29T04:28:31;0.90;;;0.70;;
1020;SDS011;499;42.648;23.270;2023-04-29T04:30:58;1.40;;;1.30;;
1020;SDS011;499;42.648;23.270;2023-04-29T04:33:27;1.70;;;1.60;;
1020;SDS011;499;42.648;23.270;2023-04-29T04:35:54;0.90;;;0.70;;
1020;SDS011;499;42.648;23.270;2023-04-29T04:38:21;1.30;;;1.20;;
1020;SDS011;499;42.648;23.270;2023-04-29T04:40:49;1.10;;;0.70;;
1020;SDS011;499;42.648;23.270;2023-04-29T04:43:16;1.40;;;1.30;;
1020;SDS011;499;42.648;23.270;2023-04-29T04:45:43;2.10;;;2.00;;
1020;SDS011;499;42.648;23.270;2023-04-29T04:48:10;1.10;;;0.90;;
1020;SDS011;499;42.648;23.270;2023-04-29T04:50:39;0.90;;;0.80;;
1020;SDS011;499;42.648;23.270;2023-04-29T04:53:06;1.37;;;1.03;;
1020;SDS011;499;42.648;23.270;2023-04-29T04:55:33;1.13;;;0.80;;
1020;SDS011;499;42.648;23.270;2023-04-29T04:58:00;0.90;;;0.60;;
1020;SDS011;499;42.648;23.270;2023-04-29T05:00:27;1.10;;;0.93;;
1020;SDS011;499;42.648;23.270;2023-04-29T05:02:54;1.70;;;1.57;;
1020;SDS011;499;42.648;23.270;2023-04-29T05:05:22;0.90;;;0.70;;
1020;SDS011;499;42.648;23.270;2023-04-29T05:07:50;1.10;;;0.90;;
1020;SDS011;499;42.648;23.270;2023-04-29T05:10:17;0.90;;;0.80;;
1020;SDS011;499;42.648;23.270;2023-04-29T05:12:44;1.00;;;0.83;;
1020;SDS011;499;42.648;23.270;2023-04-29T05:15:11;1.17;;;0.90;;
1020;SDS011;499;42.648;23.270;2023-04-29T05:17:40;2.17;;;1.97;;
1020;SDS011;499;42.648;23.270;2023-04-29T05:20:08;3.03;;;2.63;;
1020;SDS011;499;42.648;23.270;2023-04-29T05:22:35;1.83;;;1.37;;
1020;SDS011;499;42.648;23.270;2023-04-29T05:25:04;1.47;;;1.17;;
1020;SDS011;499;42.648;23.270;2023-04-29T05:27:31;1.07;;;0.97;;
1020;SDS011;499;42.648;23.270;2023-04-29T05:29:58;0.90;;;0.77;;
1020;SDS011;499;42.648;23.270;2023-04-29T05:32:26;0.90;;;0.70;;
1020;SDS011;499;42.648;23.270;2023-04-29T05:34:53;0.90;;;0.70;;
1020;SDS011;499;42.648;23.270;2023-04-29T05:37:20;0.97;;;0.87;;
1020;SDS011;499;42.648;23.270;2023-04-29T05:39:48;1.10;;;0.83;;
1020;SDS011;499;42.648;23.270;2023-04-29T05:42:16;1.00;;;0.90;;
1020;SDS011;499;42.648;23.270;2023-04-29T05:44:43;1.23;;;1.00;;
1020;SDS011;499;42.648;23.270;2023-04-29T05:47:11;1.00;;;0.80;;
1020;SDS011;499;42.648;23.270;2023-04-29T05:49:38;1.13;;;1.03;;
1020;SDS011;499;42.648;23.270;2023-04-29T05:52:05;1.13;;;1.03;;
1020;SDS011;499;42.648;23.270;2023-04-29T05:54:32;1.00;;;0.80;;
1020;SDS011;499;42.648;23.270;2023-04-29T05:56:59;1.60;;;1.03;;
1020;SDS011;499;42.648;23.270;2023-04-29T05:59:29;2.27;;;1.77;;
1020;SDS011;499;42.648;23.270;2023-04-29T06:01:56;1.00;;;0.70;;
1020;SDS011;499;42.648;23.270;2023-04-29T06:04:23;2.20;;;1.33;;
1020;SDS011;499;42.648;23.270;2023-04-29T06:06:51;1.13;;;1.03;;
1020;SDS011;499;42.648;23.270;2023-04-29T06:09:19;2.60;;;1.50;;
1020;SDS011;499;42.648;23.270;2023-04-29T06:11:46;1.57;;;1.47;;
1020;SDS011;499;42.648;23.270;2023-04-29T06:14:13;5.67;;;2.73;;
1020;SDS011;499;42.648;23.270;2023-04-29T06:16:41;2.73;;;2.53;;
1020;SDS011;499;42.648;23.270;2023-04-29T06:19:08;4.60;;;4.00;;
1020;SDS011;499;42.648;23.270;2023-04-29T06:21:36;4.43;;;3.37;;
1020;SDS011;499;42.648;23.270;2023-04-29T06:24:03;2.30;;;2.10;;
1020;SDS011;499;42.648;23.270;2023-04-29T06:26:30;2.20;;;1.90;;
1020;SDS011;499;42.648;23.270;2023-04-29T06:28:57;2.80;;;1.77;;
1020;SDS011;499;42.648;23.270;2023-04-29T06:31:24;3.50;;;2.97;;
1020;SDS011;499;42.648;23.270;2023-04-29T06:33:53;3.40;;;2.70;;
1020;SDS011;499;42.648;23.270;2023-04-29T06:36:20;1.03;;;0.90;;
1020;SDS011;499;42.648;23.270;2023-04-29T06:38:47;2.30;;;1.43;;
1020;SDS011;499;42.648;23.270;2023-04-29T06:41:15;2.20;;;1.87;;
1020;SDS011;499;42.648;23.270;2023-04-29T06:43:42;3.77;;;2.00;;
1020;SDS011;499;42.648;23.270;2023-04-29T06:46:09;5.00;;;3.57;;
1020;SDS011;499;42.648;23.270;2023-04-29T06:48:37;1.30;;;1.13;;
1020;SDS011;499;42.648;23.270;2023-04-29T06:51:05;1.40;;;1.00;;
1020;SDS011;499;42.648;23.270;2023-04-29T06:53:32;3.50;;;3.20;;
1020;SDS011;499;42.648;23.270;2023-04-29T06:56:00;4.43;;;3.33;;
1020;SDS011;499;42.648;23.270;2023-04-29T06:58:27;2.17;;;1.97;;
1020;SDS011;499;42.648;23.270;2023-04-29T07:00:54;1.37;;;1.27;;
1020;SDS011;499;42.648;23.270;2023-04-29T07:03:21;3.40;;;3.10;;
1020;SDS011;499;42.648;23.270;2023-04-29T07:05:48;3.00;;;2.60;;
1020;SDS011;499;42.648;23.270;2023-04-29T07:08:17;3.13;;;2.47;;
1020;SDS011;499;42.648;23.270;2023-04-29T07:10:45;3.30;;;2.90;;
1020;SDS011;499;42.648;23.270;2023-04-29T07:13:19;3.50;;;3.20;;
1020;SDS011;499;42.648;23.270;2023-04-29T07:15:46;2.10;;;1.90;;
1020;SDS011;499;42.648;23.270;2023-04-29T07:18:13;3.20;;;2.77;;
1020;SDS011;499;42.648;23.270;2023-04-29T07:20:40;2.33;;;2.13;;
1020;SDS011;499;42.648;23.270;2023-04-29T07:23:08;3.30;;;2.90;;
1020;SDS011;499;42.648;23.270;2023-04-29T07:25:37;3.03;;;2.57;;
1020;SDS011;499;42.648;23.270;2023-04-29T07:28:05;2.20;;;1.93;;
1020;SDS011;499;42.648;23.270;2023-04-29T07:30:33;3.90;;;2.93;;
1020;SDS011;499;42.648;23.270;2023-04-29T07:33:01;3.00;;;2.47;;
1020;SDS011;499;42.648;23.270;2023-04-29T07:35:28;5.00;;;4.50;;
1020;SDS011;499;42.648;23.270;2023-04-29T07:37:55;3.50;;;2.87;;
1020;SDS011;499;42.648;23.270;2023-04-29T07:40:22;2.67;;;2.00;;
1020;SDS011;499;42.648;23.270;2023-04-29T07:42:51;2.47;;;2.27;;
1020;SDS011;499;42.648;23.270;2023-04-29T07:45:18;2.37;;;2.03;;
1020;SDS011;499;42.648;23.270;2023-04-29T07:47:45;2.63;;;2.13;;
1020;SDS011;499;42.648;23.270;2023-04-29T07:50:12;4.67;;;3.13;;
1020;SDS011;499;42.648;23.270;2023-04-29T07:52:40;5.53;;;2.63;;
1020;SDS011;499;42.648;23.270;2023-04-29T07:55:07;3.47;;;2.50;;
1020;SDS011;499;42.648;23.270;2023-04-29T07:57:34;3.63;;;2.10;;
1020;SDS011;499;42.648;23.270;2023-04-29T08:00:04;2.57;;;2.13;;
1020;SDS011;499;42.648;23.270;2023-04-29T08:02:32;2.73;;;2.27;;
1020;SDS011;499;42.648;23.270;2023-04-29T08:04:59;3.00;;;2.30;;
1020;SDS011;499;42.648;23.270;2023-04-29T08:07:26;3.50;;;2.50;;
1020;SDS011;499;42.648;23.270;2023-04-29T08:09:53;3.90;;;2.53;;
1020;SDS011;499;42.648;23.270;2023-04-29T08:12:20;3.40;;;2.70;;
1020;SDS011;499;42.648;23.270;2023-04-29T08:14:47;3.20;;;2.50;;
1020;SDS011;499;42.648;23.270;2023-04-29T08:17:16;2.90;;;2.30;;
1020;SDS011;499;42.648;23.270;2023-04-29T08:19:43;4.00;;;2.80;;
1020;SDS011;499;42.648;23.270;2023-04-29T08:22:10;2.90;;;2.50;;
1020;SDS011;499;42.648;23.270;2023-04-29T08:24:38;3.50;;;2.67;;
1020;SDS011;499;42.648;23.270;2023-04-29T08:27:06;3.00;;;2.27;;
1020;SDS011;499;42.648;23.270;2023-04-29T08:29:34;2.77;;;2.50;;
1020;SDS011;499;42.648;23.270;2023-04-29T08:32:01;2.40;;;1.97;;
1020;SDS011;499;42.648;23.270;2023-04-29T08:34:31;2.30;;;2.07;;
1020;SDS011;499;42.648;23.270;2023-04-29T08:37:00;2.87;;;2.30;;
1020;SDS011;499;42.648;23.270;2023-04-29T08:39:28;2.87;;;2.60;;
1020;SDS011;499;42.648;23.270;2023-04-29T08:41:55;2.40;;;2.20;;
1020;SDS011;499;42.648;23.270;2023-04-29T08:44:24;3.77;;;3.03;;
1020;SDS011;499;42.648;23.270;2023-04-29T08:46:51;6.10;;;3.87;;
1020;SDS011;499;42.648;23.270;2023-04-29T08:49:19;2.30;;;2.10;;
1020;SDS011;499;42.648;23.270;2023-04-29T08:51:48;3.80;;;2.47;;
1020;SDS011;499;42.648;23.270;2023-04-29T08:54:16;3.20;;;2.30;;
1020;SDS011;499;42.648;23.270;2023-04-29T08:56:44;2.73;;;2.33;;
1020;SDS011;499;42.648;23.270;2023-04-29T08:59:12;2.10;;;1.90;;
1020;SDS011;499;42.648;23.270;2023-04-29T09:01:41;2.27;;;2.03;;
1020;SDS011;499;42.648;23.270;2023-04-29T09:04:11;3.17;;;2.73;;
1020;SDS011;499;42.648;23.270;2023-04-29T09:06:44;3.10;;;2.77;;
1020;SDS011;499;42.648;23.270;2023-04-29T09:09:14;3.40;;;1.80;;
1020;SDS011;499;42.648;23.270;2023-04-29T09:11:41;6.20;;;2.30;;
1020;SDS011;499;42.648;23.270;2023-04-29T09:14:08;3.00;;;2.67;;
1020;SDS011;499;42.648;23.270;2023-04-29T09:16:35;2.33;;;1.77;;
1020;SDS011;499;42.648;23.270;2023-04-29T09:19:03;3.83;;;2.30;;
1020;SDS011;499;42.648;23.270;2023-04-29T09:21:30;4.27;;;2.27;;
1020;SDS011;499;42.648;23.270;2023-04-29T09:23:58;2.90;;;2.37;;
1020;SDS011;499;42.648;23.270;2023-04-29T09:26:32;1.53;;;1.40;;
1020;SDS011;499;42.648;23.270;2023-04-29T09:29:07;2.83;;;2.47;;
1020;SDS011;499;42.648;23.270;2023-04-29T09:31:36;3.50;;;2.40;;
1020;SDS011;499;42.648;23.270;2023-04-29T09:34:04;2.47;;;1.93;;
1020;SDS011;499;42.648;23.270;2023-04-29T09:36:39;2.90;;;2.20;;
1020;SDS011;499;42.648;23.270;2023-04-29T09:39:10;2.50;;;2.10;;
1020;SDS011;499;42.648;23.270;2023-04-29T09:41:40;3.73;;;2.90;;
1020;SDS011;499;42.648;23.270;2023-04-29T09:44:22;2.40;;;2.10;;
1020;SDS011;499;42.648;23.270;2023-04-29T09:46:53;3.20;;;2.40;;
1020;SDS011;499;42.648;23.270;2023-04-29T09:49:21;2.20;;;1.73;;
1020;SDS011;499;42.648;23.270;2023-04-29T09:51:53;2.07;;;1.87;;
1020;SDS011;499;42.648;23.270;2023-04-29T09:54:22;3.50;;;2.80;;
1020;SDS011;499;42.648;23.270;2023-04-29T09:56:54;2.63;;;2.10;;
1020;SDS011;499;42.648;23.270;2023-04-29T09:59:22;2.77;;;2.00;;
1020;SDS011;499;42.648;23.270;2023-04-29T10:01:50;2.40;;;1.70;;
1020;SDS011;499;42.648;23.270;2023-04-29T10:04:19;2.20;;;1.90;;
1020;SDS011;499;42.648;23.270;2023-04-29T10:06:47;4.03;;;2.87;;
1020;SDS011;499;42.648;23.270;2023-04-29T10:09:15;3.00;;;2.00;;
1020;SDS011;499;42.648;23.270;2023-04-29T10:11:43;2.03;;;1.83;;
1020;SDS011;499;42.648;23.270;2023-04-29T10:14:13;2.57;;;2.13;;
1020;SDS011;499;42.648;23.270;2023-04-29T10:16:45;4.20;;;3.03;;
1020;SDS011;499;42.648;23.270;2023-04-29T10:19:14;2.10;;;1.53;;
1020;SDS011;499;42.648;23.270;2023-04-29T10:21:47;3.17;;;2.50;;
1020;SDS011;499;42.648;23.270;2023-04-29T10:24:16;3.10;;;1.83;;
1020;SDS011;499;42.648;23.270;2023-04-29T10:26:44;2.73;;;2.23;;
1020;SDS011;499;42.648;23.270;2023-04-29T10:29:15;2.07;;;1.87;;
1020;SDS011;499;42.648;23.270;2023-04-29T10:31:44;3.03;;;2.10;;
1020;SDS011;499;42.648;23.270;2023-04-29T10:34:13;2.30;;;2.10;;
1020;SDS011;499;42.648;23.270;2023-04-29T10:36:43;4.10;;;2.50;;
1020;SDS011;499;42.648;23.270;2023-04-29T10:39:23;3.47;;;2.10;;
1020;SDS011;499;42.648;23.270;2023-04-29T10:42:05;2.30;;;1.60;;
1020;SDS011;499;42.648;23.270;2023-04-29T10:50:39;2.73;;;1.90;;
1020;SDS011;499;42.648;23.270;2023-04-29T10:53:33;3.70;;;2.07;;
1020;SDS011;499;42.648;23.270;2023-04-29T10:56:05;2.43;;;1.50;;
1020;SDS011;499;42.648;23.270;2023-04-29T10:58:35;2.30;;;1.30;;
1020;SDS011;499;42.648;23.270;2023-04-29T11:01:05;2.10;;;1.90;;
1020;SDS011;499;42.648;23.270;2023-04-29T11:03:51;2.27;;;1.80;;
1020;SDS011;499;42.648;23.270;2023-04-29T11:06:23;2.37;;;1.60;;
1020;SDS011;499;42.648;23.270;2023-04-29T11:09:00;2.77;;;2.10;;
1020;SDS011;499;42.648;23.270;2023-04-29T11:11:41;1.47;;;1.00;;
1020;SDS011;499;42.648;23.270;2023-04-29T11:14:09;2.00;;;1.53;;
1020;SDS011;499;42.648;23.270;2023-04-29T11:16:47;2.73;;;2.00;;
1020;SDS011;499;42.648;23.270;2023-04-29T11:19:16;1.60;;;1.23;;
1020;SDS011;499;42.648;23.270;2023-04-29T11:21:44;2.03;;;1.50;;
1020;SDS011;499;42.648;23.270;2023-04-29T11:24:12;1.50;;;1.30;;
1020;SDS011;499;42.648;23.270;2023-04-29T11:26:41;1.73;;;1.40;;
1020;SDS011;499;42.648;23.270;2023-04-29T11:29:10;1.90;;;1.30;;
1020;SDS011;499;42.648;23.270;2023-04-29T11:31:37;1.30;;;0.90;;
1020;SDS011;499;42.648;23.270;2023-04-29T11:34:06;1.43;;;1.17;;
1020;SDS011;499;42.648;23.270;2023-04-29T11:36:33;1.80;;;1.20;;
1020;SDS011;499;42.648;23.270;2023-04-29T11:39:01;1.43;;;1.10;;
1020;SDS011;499;42.648;23.270;2023-04-29T11:41:29;1.40;;;0.90;;
1020;SDS011;499;42.648;23.270;2023-04-29T11:43:57;1.70;;;1.00;;
1020;SDS011;499;42.648;23.270;2023-04-29T11:46:25;1.50;;;1.07;;
1020;SDS011;499;42.648;23.270;2023-04-29T11:48:56;1.70;;;0.90;;
1020;SDS011;499;42.648;23.270;2023-04-29T11:51:26;1.70;;;0.90;;
1020;SDS011;499;42.648;23.270;2023-04-29T11:53:53;1.50;;;1.27;;
1020;SDS011;499;42.648;23.270;2023-04-29T11:56:21;1.43;;;1.00;;
1020;SDS011;499;42.648;23.270;2023-04-29T11:58:49;1.57;;;0.93;;
1020;SDS011;499;42.648;23.270;2023-04-29T12:01:20;1.43;;;1.17;;
1020;SDS011;499;42.648;23.270;2023-04-29T12:03:48;1.30;;;0.90;;
1020;SDS011;499;42.648;23.270;2023-04-29T12:06:16;1.00;;;0.73;;
1020;SDS011;499;42.648;23.270;2023-04-29T12:08:45;1.73;;;0.77;;
1020;SDS011;499;42.648;23.270;2023-04-29T12:11:12;1.43;;;0.80;;
1020;SDS011;499;42.648;23.270;2023-04-29T12:13:40;1.50;;;1.27;;
1020;SDS011;499;42.648;23.270;2023-04-29T12:16:07;1.20;;;1.00;;
1020;SDS011;499;42.648;23.270;2023-04-29T12:18:35;1.83;;;1.30;;
1020;SDS011;499;42.648;23.270;2023-04-29T12:21:03;1.30;;;0.90;;
1020;SDS011;499;42.648;23.270;2023-04-29T12:23:30;1.20;;;0.70;;
1020;SDS011;499;42.648;23.270;2023-04-29T12:25:59;1.30;;;1.00;;
1020;SDS011;499;42.648;23.270;2023-04-29T12:28:26;1.30;;;0.93;;
1020;SDS011;499;42.648;23.270;2023-04-29T12:30:54;1.47;;;1.03;;
1020;SDS011;499;42.648;23.270;2023-04-29T12:33:24;1.50;;;1.10;;
1020;SDS011;499;42.648;23.270;2023-04-29T12:35:55;1.20;;;0.93;;
1020;SDS011;499;42.648;23.270;2023-04-29T12:38:23;1.20;;;0.80;;
1020;SDS011;499;42.648;23.270;2023-04-29T12:40:52;1.60;;;1.10;;
1020;SDS011;499;42.648;23.270;2023-04-29T12:43:25;1.10;;;0.70;;
1020;SDS011;499;42.648;23.270;2023-04-29T12:45:53;1.30;;;1.00;;
1020;SDS011;499;42.648;23.270;2023-04-29T12:48:28;1.40;;;1.00;;
1020;SDS011;499;42.648;23.270;2023-04-29T12:50:57;1.43;;;1.23;;
1020;SDS011;499;42.648;23.270;2023-04-29T12:53:25;1.40;;;1.20;;
1020;SDS011;499;42.648;23.270;2023-04-29T12:55:54;1.40;;;0.80;;
1020;SDS011;499;42.648;23.270;2023-04-29T12:58:22;1.10;;;0.80;;
1020;SDS011;499;42.648;23.270;2023-04-29T13:00:50;1.53;;;1.23;;
1020;SDS011;499;42.648;23.270;2023-04-29T13:03:17;1.60;;;1.03;;
1020;SDS011;499;42.648;23.270;2023-04-29T13:05:44;1.40;;;0.80;;
1020;SDS011;499;42.648;23.270;2023-04-29T13:08:15;1.10;;;0.70;;
1020;SDS011;499;42.648;23.270;2023-04-29T13:10:42;1.40;;;0.90;;
1020;SDS011;499;42.648;23.270;2023-04-29T13:13:09;1.60;;;0.87;;
1020;SDS011;499;42.648;23.270;2023-04-29T13:15:36;1.53;;;0.77;;
1020;SDS011;499;42.648;23.270;2023-04-29T13:18:05;1.60;;;0.90;;
1020;SDS011;499;42.648;23.270;2023-04-29T13:20:32;1.73;;;1.23;;
1020;SDS011;499;42.648;23.270;2023-04-29T13:22:59;1.20;;;0.80;;
1020;SDS011;499;42.648;23.270;2023-04-29T13:25:27;1.10;;;0.70;;
1020;SDS011;499;42.648;23.270;2023-04-29T13:27:54;1.60;;;0.77;;
1020;SDS011;499;42.648;23.270;2023-04-29T13:30:21;1.23;;;0.90;;
1020;SDS011;499;42.648;23.270;2023-04-29T13:32:48;1.57;;;0.90;;
1020;SDS011;499;42.648;23.270;2023-04-29T13:35:17;1.60;;;1.10;;
1020;SDS011;499;42.648;23.270;2023-04-29T13:37:44;1.30;;;0.80;;
1020;SDS011;499;42.648;23.270;2023-04-29T13:40:12;1.20;;;0.90;;
1020;SDS011;499;42.648;23.270;2023-04-29T13:42:39;1.30;;;0.87;;
1020;SDS011;499;42.648;23.270;2023-04-29T13:45:06;1.40;;;0.80;;
1020;SDS011;499;42.648;23.270;2023-04-29T13:47:35;1.30;;;0.77;;
1020;SDS011;499;42.648;23.270;2023-04-29T13:50:02;2.00;;;0.80;;
1020;SDS011;499;42.648;23.270;2023-04-29T13:52:31;1.30;;;0.70;;
1020;SDS011;499;42.648;23.270;2023-04-29T13:54:58;1.20;;;0.70;;
1020;SDS011;499;42.648;23.270;2023-04-29T13:57:25;1.00;;;0.50;;
1020;SDS011;499;42.648;23.270;2023-04-29T13:59:52;1.20;;;0.70;;
1020;SDS011;499;42.648;23.270;2023-04-29T14:02:20;1.33;;;0.67;;
1020;SDS011;499;42.648;23.270;2023-04-29T14:04:47;1.63;;;0.90;;
1020;SDS011;499;42.648;23.270;2023-04-29T14:07:14;1.67;;;0.90;;
1020;SDS011;499;42.648;23.270;2023-04-29T14:09:42;1.50;;;1.20;;
1020;SDS011;499;42.648;23.270;2023-04-29T14:12:10;1.50;;;1.00;;
1020;SDS011;499;42.648;23.270;2023-04-29T14:14:37;2.23;;;0.90;;
1020;SDS011;499;42.648;23.270;2023-04-29T14:17:04;1.53;;;0.90;;
1020;SDS011;499;42.648;23.270;2023-04-29T14:19:31;2.03;;;1.33;;
1020;SDS011;499;42.648;23.270;2023-04-29T14:21:58;1.43;;;0.73;;
1020;SDS011;499;42.648;23.270;2023-04-29T14:24:25;1.63;;;0.87;;
1020;SDS011;499;42.648;23.270;2023-04-29T14:26:53;1.37;;;0.93;;
1020;SDS011;499;42.648;23.270;2023-04-29T14:29:22;1.73;;;1.00;;
1020;SDS011;499;42.648;23.270;2023-04-29T14:31:49;1.40;;;1.03;;
1020;SDS011;499;42.648;23.270;2023-04-29T14:34:16;1.10;;;0.73;;
1020;SDS011;499;42.648;23.270;2023-04-29T14:36:43;1.70;;;1.00;;
1020;SDS011;499;42.648;23.270;2023-04-29T14:39:11;1.73;;;1.30;;
1020;SDS011;499;42.648;23.270;2023-04-29T14:41:38;2.37;;;0.93;;
1020;SDS011;499;42.648;23.270;2023-04-29T14:44:06;1.70;;;1.40;;
1020;SDS011;499;42.648;23.270;2023-04-29T14:46:34;1.10;;;0.70;;
1020;SDS011;499;42.648;23.270;2023-04-29T14:49:01;3.03;;;1.80;;
1020;SDS011;499;42.648;23.270;2023-04-29T14:51:28;1.30;;;0.97;;
1020;SDS011;499;42.648;23.270;2023-04-29T14:53:55;1.93;;;1.13;;
1020;SDS011;499;42.648;23.270;2023-04-29T14:56:22;1.47;;;1.00;;
1020;SDS011;499;42.648;23.270;2023-04-29T14:58:50;1.77;;;1.10;;
1020;SDS011;499;42.648;23.270;2023-04-29T15:01:18;1.43;;;0.93;;
1020;SDS011;499;42.648;23.270;2023-04-29T15:03:45;1.70;;;1.10;;
1020;SDS011;499;42.648;23.270;2023-04-29T15:06:12;1.97;;;1.10;;
1020;SDS011;499;42.648;23.270;2023-04-29T15:08:40;1.50;;;1.00;;
1020;SDS011;499;42.648;23.270;2023-04-29T15:11:07;1.47;;;1.03;;
1020;SDS011;499;42.648;23.270;2023-04-29T15:13:34;1.30;;;0.90;;
1020;SDS011;499;42.648;23.270;2023-04-29T15:16:01;1.50;;;0.80;;
1020;SDS011;499;42.648;23.270;2023-04-29T15:18:30;1.10;;;0.70;;
1020;SDS011;499;42.648;23.270;2023-04-29T15:20:57;2.37;;;1.50;;
1020;SDS011;499;42.648;23.270;2023-04-29T15:23:24;1.90;;;1.00;;
1020;SDS011;499;42.648;23.270;2023-04-29T15:25:52;1.53;;;1.10;;
1020;SDS011;499;42.648;23.270;2023-04-29T15:28:19;1.43;;;0.90;;